createdAt,value
2019-05-17T00:00:23.233Z,39.38
2019-05-17T00:02:57.150Z,38.58
2019-05-17T00:05:27.353Z,37.13
2019-05-17T00:07:59.231Z,39.27
2019-05-17T00:10:29.648Z,40.78
2019-05-17T00:13:01.628Z,42.95
2019-05-17T00:15:32.001Z,41.20
2019-05-17T00:18:02.434Z,40.75
2019-05-17T00:20:34.288Z,39.45
2019-05-17T00:23:07.110Z,41.35
2019-05-17T00:25:37.766Z,41.80
2019-05-17T00:28:08.180Z,42.88
2019-05-17T00:30:38.633Z,41.80
2019-05-17T00:33:09.288Z,41.80
2019-05-17T00:35:39.666Z,42.53
2019-05-17T00:38:11.643Z,42.30
2019-05-17T00:40:42.038Z,41.83
2019-05-17T00:43:12.445Z,40.58
2019-05-17T00:45:42.817Z,41.85
2019-05-17T00:48:13.372Z,42.60
2019-05-17T00:50:43.777Z,43.00
2019-05-17T00:53:16.266Z,40.00
2019-05-17T00:55:46.701Z,39.45
2019-05-17T00:58:18.707Z,41.35
2019-05-17T01:00:49.196Z,42.15
2019-05-17T01:03:21.084Z,40.92
2019-05-17T01:05:51.551Z,39.95
2019-05-17T01:08:22.026Z,41.50
2019-05-17T01:10:54.002Z,43.13
2019-05-17T01:13:26.558Z,41.25
2019-05-17T01:15:56.761Z,41.48
2019-05-17T01:18:27.516Z,40.12
2019-05-17T01:20:57.985Z,43.38
2019-05-17T01:23:29.228Z,39.88
2019-05-17T01:25:59.645Z,39.25
2019-05-17T01:28:30.100Z,40.43
2019-05-17T01:31:00.471Z,39.90
2019-05-17T01:33:30.998Z,39.73
2019-05-17T01:36:01.381Z,40.60
2019-05-17T01:38:31.870Z,40.20
2019-05-17T01:41:02.335Z,40.70
2019-05-17T01:43:32.872Z,42.58
2019-05-17T01:46:03.378Z,41.53
2019-05-17T01:48:33.788Z,41.90
2019-05-17T01:51:04.176Z,41.15
2019-05-17T01:53:36.460Z,49.58
2019-05-17T01:56:08.153Z,50.60
2019-05-17T01:58:38.578Z,49.18
2019-05-17T02:01:08.966Z,46.80
2019-05-17T02:03:39.369Z,45.63
2019-05-17T02:06:09.834Z,50.58
2019-05-17T02:08:40.323Z,46.18
2019-05-17T02:11:10.785Z,45.65
2019-05-17T02:13:41.191Z,42.75
2019-05-17T02:16:11.823Z,45.15
2019-05-17T02:18:43.806Z,43.10
2019-05-17T02:21:16.671Z,43.70
2019-05-17T02:23:46.944Z,44.40
2019-05-17T02:26:18.952Z,42.95
2019-05-17T02:28:49.467Z,45.73
2019-05-17T02:31:20.678Z,44.50
2019-05-17T02:33:53.477Z,45.45
2019-05-17T02:36:23.505Z,42.93
2019-05-17T02:38:54.006Z,43.23
2019-05-17T02:41:24.518Z,45.25
2019-05-17T02:43:54.989Z,40.52
2019-05-17T02:46:25.464Z,39.88
2019-05-17T02:48:55.919Z,40.10
2019-05-17T02:51:26.528Z,40.38
2019-05-17T02:53:56.901Z,40.88
2019-05-17T02:56:27.558Z,40.12
2019-05-17T02:58:57.995Z,42.00
2019-05-17T03:01:28.493Z,39.90
2019-05-17T03:03:58.981Z,42.05
2019-05-17T03:06:32.897Z,42.08
2019-05-17T03:09:03.657Z,42.75
2019-05-17T03:11:34.148Z,40.03
2019-05-17T03:14:04.562Z,40.10
2019-05-17T03:16:36.497Z,40.83
2019-05-17T03:19:06.889Z,42.38
2019-05-17T03:21:37.274Z,45.67
2019-05-17T03:24:07.686Z,43.70
2019-05-17T03:26:38.043Z,43.68
2019-05-17T03:29:08.441Z,48.00
2019-05-17T03:31:44.536Z,45.80
2019-05-17T03:34:16.767Z,46.50
2019-05-17T03:36:46.899Z,44.60
2019-05-17T03:39:16.256Z,43.87
2019-05-17T03:41:46.627Z,47.00
2019-05-17T03:44:17.074Z,46.63
2019-05-17T03:46:47.451Z,45.70
2019-05-17T03:49:18.029Z,45.50
2019-05-17T03:51:48.477Z,45.90
2019-05-17T03:54:22.650Z,44.58
2019-05-17T03:56:55.399Z,45.28
2019-05-17T03:59:27.462Z,46.63
2019-05-17T04:01:57.914Z,47.67
2019-05-17T04:04:28.328Z,47.90
2019-05-17T04:07:03.151Z,54.65
2019-05-17T04:09:32.859Z,73.67
2019-05-17T04:12:04.932Z,70.47
2019-05-17T04:14:35.352Z,56.02
2019-05-17T04:17:05.832Z,53.65
2019-05-17T04:19:36.305Z,55.83
2019-05-17T04:22:06.687Z,59.85
2019-05-17T04:24:37.162Z,51.20
2019-05-17T04:27:07.573Z,45.90
2019-05-17T04:29:42.422Z,43.20
2019-05-17T04:32:12.991Z,43.33
2019-05-17T04:34:43.890Z,46.95
2019-05-17T04:37:14.472Z,39.83
2019-05-17T04:39:44.952Z,42.62
2019-05-17T04:42:15.460Z,48.55
2019-05-17T04:44:45.955Z,47.43
2019-05-17T04:47:16.414Z,45.15
2019-05-17T04:49:47.420Z,43.48
2019-05-17T04:52:17.943Z,44.58
2019-05-17T04:54:48.393Z,39.55
2019-05-17T04:57:18.792Z,37.23
2019-05-17T04:59:49.161Z,39.40
2019-05-17T05:02:23.617Z,40.92
2019-05-17T05:04:53.531Z,41.85
2019-05-17T05:07:24.088Z,43.95
2019-05-17T05:09:54.545Z,42.40
2019-05-17T05:12:26.432Z,42.53
2019-05-17T05:14:56.900Z,42.00
2019-05-17T05:17:27.362Z,39.13
2019-05-17T05:20:02.516Z,40.88
2019-05-17T05:22:33.089Z,42.25
2019-05-17T05:25:04.839Z,39.90
2019-05-17T05:27:35.261Z,40.48
2019-05-17T05:30:07.240Z,45.25
2019-05-17T05:32:37.672Z,38.67
2019-05-17T05:35:08.043Z,37.85
2019-05-17T05:37:38.614Z,40.30
2019-05-17T05:40:12.608Z,39.83
2019-05-17T05:42:42.998Z,42.35
2019-05-17T05:45:14.728Z,43.23
2019-05-17T05:47:45.137Z,43.98
2019-05-17T05:50:17.724Z,42.62
2019-05-17T05:52:48.229Z,40.78
2019-05-17T05:55:18.618Z,40.65
2019-05-17T05:57:49.120Z,39.03
2019-05-17T06:00:21.975Z,38.45
2019-05-17T06:02:52.313Z,35.68
2019-05-17T06:05:22.789Z,33.88
2019-05-17T06:07:53.278Z,30.80
2019-05-17T06:10:23.649Z,31.90
2019-05-17T06:12:55.579Z,30.92
2019-05-17T06:15:26.012Z,29.67
2019-05-17T06:17:56.393Z,34.10
2019-05-17T06:20:28.299Z,34.53
2019-05-17T06:22:58.678Z,31.40
2019-05-17T06:25:29.142Z,30.23
2019-05-17T06:28:01.431Z,33.45
2019-05-17T06:30:32.368Z,26.70
2019-05-17T06:33:02.871Z,27.15
2019-05-17T06:35:33.353Z,27.48
2019-05-17T06:38:04.598Z,27.58
2019-05-17T06:40:34.974Z,27.73
2019-05-17T06:43:05.397Z,28.55
2019-05-17T06:45:35.782Z,27.00
2019-05-17T06:48:06.191Z,28.15
2019-05-17T06:50:36.578Z,28.12
2019-05-17T06:53:06.989Z,25.97
2019-05-17T06:55:37.368Z,23.02
2019-05-17T06:58:07.778Z,24.80
2019-05-17T07:00:40.257Z,24.18
2019-05-17T07:03:10.245Z,21.42
2019-05-17T07:05:42.193Z,20.80
2019-05-17T07:08:12.627Z,20.97
2019-05-17T07:10:43.012Z,24.67
2019-05-17T07:13:14.885Z,23.25
2019-05-17T07:15:47.914Z,25.23
2019-05-17T07:18:19.462Z,21.42
2019-05-17T07:20:50.188Z,16.95
2019-05-17T07:23:20.786Z,15.05
2019-05-17T07:25:51.183Z,16.93
2019-05-17T07:28:21.665Z,17.80
2019-05-17T07:30:52.174Z,16.52
2019-05-17T07:33:22.549Z,15.85
2019-05-17T07:35:52.934Z,18.07
2019-05-17T07:38:23.387Z,17.50
2019-05-17T07:40:53.764Z,17.62
2019-05-17T07:43:24.164Z,16.17
2019-05-17T07:45:54.596Z,15.68
2019-05-17T07:48:25.002Z,14.25
2019-05-17T07:50:55.383Z,12.85
2019-05-17T07:53:25.842Z,13.58
2019-05-17T07:55:56.212Z,15.25
2019-05-17T07:58:26.628Z,13.55
2019-05-17T08:00:57.049Z,11.90
2019-05-17T08:03:29.720Z,12.00
2019-05-17T08:06:00.112Z,12.50
2019-05-17T08:08:31.368Z,12.07
2019-05-17T08:11:02.084Z,12.60
2019-05-17T08:13:33.812Z,12.60
2019-05-17T08:16:04.382Z,11.35
2019-05-17T08:18:34.879Z,10.03
2019-05-17T08:21:05.344Z,11.60
2019-05-17T08:23:40.075Z,10.98
2019-05-17T08:26:10.744Z,11.95
2019-05-17T08:28:41.315Z,10.58
2019-05-17T08:31:11.818Z,7.58
2019-05-17T08:33:43.679Z,7.00
2019-05-17T08:36:13.710Z,8.25
2019-05-17T08:38:44.106Z,9.70
2019-05-17T08:41:14.158Z,8.10
2019-05-17T08:43:47.014Z,8.80
2019-05-17T08:46:16.596Z,6.85
2019-05-17T08:48:49.385Z,6.87
2019-05-17T08:51:19.753Z,6.87
2019-05-17T08:53:50.285Z,8.50
2019-05-17T08:56:20.693Z,7.62
2019-05-17T08:58:51.164Z,8.68
2019-05-17T09:01:21.549Z,5.80
2019-05-17T09:03:52.112Z,6.85
2019-05-17T09:06:24.036Z,10.25
2019-05-17T09:08:54.530Z,6.53
2019-05-17T09:11:24.966Z,7.08
2019-05-17T09:13:58.444Z,7.53
2019-05-17T09:16:27.473Z,9.13
2019-05-17T09:19:00.324Z,7.58
2019-05-17T09:21:31.283Z,8.83
2019-05-17T09:24:02.823Z,7.08
2019-05-17T09:26:33.230Z,6.60
2019-05-17T09:29:05.339Z,7.08
2019-05-17T09:31:35.782Z,6.17
2019-05-17T09:34:06.177Z,8.53
2019-05-17T09:36:36.598Z,7.42
2019-05-17T09:39:09.470Z,5.95
2019-05-17T09:41:40.071Z,7.25
2019-05-17T09:44:15.924Z,7.22
2019-05-17T09:46:42.907Z,7.65
2019-05-17T09:49:13.411Z,7.17
2019-05-17T09:51:43.821Z,9.85
2019-05-17T09:54:14.254Z,6.00
2019-05-17T09:56:44.664Z,6.75
2019-05-17T09:59:15.114Z,3.95
2019-05-17T10:01:45.480Z,4.70
2019-05-17T10:04:15.933Z,5.00
2019-05-17T10:06:46.409Z,6.05
2019-05-17T10:09:19.483Z,6.60
2019-05-17T10:11:49.298Z,6.40
2019-05-17T10:14:27.718Z,6.22
2019-05-17T10:16:51.873Z,6.50
2019-05-17T10:19:23.620Z,6.83
2019-05-17T10:21:54.157Z,6.47
2019-05-17T10:24:35.973Z,8.10
2019-05-17T10:26:56.637Z,8.40
2019-05-17T10:29:27.038Z,9.90
2019-05-17T10:31:59.728Z,5.78
2019-05-17T10:34:29.536Z,9.30
2019-05-17T10:36:59.913Z,6.78
2019-05-17T10:39:30.314Z,5.12
2019-05-17T10:42:00.708Z,6.17
2019-05-17T10:44:43.068Z,5.80
2019-05-17T10:47:03.254Z,7.67
2019-05-17T10:49:33.668Z,6.20
2019-05-17T10:52:05.543Z,7.20
2019-05-17T10:54:35.915Z,5.33
2019-05-17T10:57:06.317Z,5.37
2019-05-17T10:59:36.685Z,6.35
2019-05-17T11:02:07.291Z,5.28
2019-05-17T11:04:40.212Z,9.20
2019-05-17T11:07:10.779Z,6.50
2019-05-17T11:09:41.269Z,6.37
2019-05-17T11:12:11.723Z,6.80
2019-05-17T11:14:50.703Z,5.92
2019-05-17T11:17:14.203Z,7.05
2019-05-17T11:19:46.040Z,6.97
2019-05-17T11:22:19.446Z,6.17
2019-05-17T11:24:49.830Z,6.45
2019-05-17T11:27:20.236Z,5.65
2019-05-17T11:29:50.713Z,5.60
2019-05-17T11:32:21.260Z,6.62
2019-05-17T11:34:51.671Z,7.12
2019-05-17T11:37:23.698Z,7.15
2019-05-17T11:39:54.304Z,6.70
2019-05-17T11:42:24.723Z,6.45
2019-05-17T11:44:55.187Z,7.17
2019-05-17T11:47:27.086Z,6.67
2019-05-17T11:49:57.515Z,7.20
2019-05-17T11:52:27.887Z,6.20
2019-05-17T11:54:59.810Z,6.53
2019-05-17T11:57:30.184Z,6.47
2019-05-17T12:00:00.573Z,6.65
2019-05-17T12:02:30.977Z,7.17
2019-05-17T12:05:02.893Z,9.98
2019-05-17T12:07:33.369Z,7.55
2019-05-17T12:10:07.178Z,6.97
2019-05-17T12:12:37.598Z,7.05
2019-05-17T12:15:09.254Z,6.83
2019-05-17T12:17:39.749Z,6.50
2019-05-17T12:20:10.438Z,6.50
2019-05-17T12:22:40.832Z,7.03
2019-05-17T12:25:14.152Z,6.35
2019-05-17T12:27:44.617Z,5.37
2019-05-17T12:30:15.436Z,5.65
2019-05-17T12:32:47.512Z,7.40
2019-05-17T12:35:19.534Z,6.92
2019-05-17T12:37:49.988Z,6.10
2019-05-17T12:40:20.514Z,6.15
2019-05-17T12:42:51.149Z,4.92
2019-05-17T12:45:22.989Z,5.42
2019-05-17T12:47:53.631Z,4.55
2019-05-17T12:50:24.146Z,5.87
2019-05-17T12:52:54.598Z,6.22
2019-05-17T12:55:25.029Z,5.87
2019-05-17T12:57:56.918Z,5.97
2019-05-17T13:00:27.378Z,5.37
2019-05-17T13:02:57.769Z,5.90
2019-05-17T13:05:28.262Z,5.10
2019-05-17T13:07:58.623Z,5.97
2019-05-17T13:10:29.164Z,6.70
2019-05-17T13:12:59.543Z,11.85
2019-05-17T13:15:29.967Z,8.23
2019-05-17T13:18:01.276Z,17.00
2019-05-17T13:20:31.815Z,12.58
2019-05-17T13:23:02.230Z,7.35
2019-05-17T13:25:34.171Z,5.97
2019-05-17T13:28:04.598Z,5.97
2019-05-17T13:30:36.481Z,5.45
2019-05-17T13:33:06.847Z,4.22
2019-05-17T13:35:37.365Z,6.47
2019-05-17T13:38:07.741Z,5.95
2019-05-17T13:40:39.851Z,8.65
2019-05-17T13:43:10.251Z,6.58
2019-05-17T13:45:43.704Z,6.10
2019-05-17T13:48:12.814Z,5.47
2019-05-17T13:50:43.325Z,6.05
2019-05-17T13:53:14.635Z,6.28
2019-05-17T13:55:45.091Z,5.55
2019-05-17T13:58:15.526Z,5.60
2019-05-17T14:00:45.998Z,6.00
2019-05-17T14:03:16.466Z,5.05
2019-05-17T14:05:46.961Z,5.72
2019-05-17T14:08:18.889Z,7.42
2019-05-17T14:10:49.479Z,5.58
2019-05-17T14:13:19.865Z,6.37
2019-05-17T14:15:50.338Z,5.50
2019-05-17T14:18:20.703Z,6.22
2019-05-17T14:20:51.226Z,5.17
2019-05-17T14:23:21.669Z,5.50
2019-05-17T14:25:52.083Z,6.03
2019-05-17T14:28:22.550Z,6.50
2019-05-17T14:30:53.024Z,5.95
2019-05-17T14:33:23.421Z,5.70
2019-05-17T14:35:53.894Z,5.70
2019-05-17T14:38:24.367Z,6.10
2019-05-17T14:41:10.171Z,5.22
2019-05-17T14:43:26.950Z,6.20
2019-05-17T14:45:57.365Z,6.17
2019-05-17T14:48:29.201Z,6.33
2019-05-17T14:50:59.610Z,4.78
2019-05-17T14:53:30.013Z,6.95
2019-05-17T14:56:01.279Z,5.95
2019-05-17T14:58:31.666Z,5.37
2019-05-17T15:01:02.114Z,5.42
2019-05-17T15:03:32.572Z,5.97
2019-05-17T15:06:03.035Z,6.10
2019-05-17T15:08:33.430Z,5.17
2019-05-17T15:11:03.899Z,5.00
2019-05-17T15:13:34.377Z,4.97
2019-05-17T15:16:05.499Z,5.28
2019-05-17T15:18:35.861Z,5.03
2019-05-17T15:21:07.135Z,5.00
2019-05-17T15:23:37.522Z,5.30
2019-05-17T15:26:07.948Z,5.15
2019-05-17T15:28:38.415Z,5.20
2019-05-17T15:31:08.907Z,4.78
2019-05-17T15:33:39.566Z,4.50
2019-05-17T15:36:10.066Z,4.85
2019-05-17T15:38:41.900Z,5.50
2019-05-17T15:41:12.306Z,6.10
2019-05-17T15:43:44.144Z,5.40
2019-05-17T15:46:14.552Z,5.55
2019-05-17T15:48:44.922Z,5.40
2019-05-17T15:51:15.341Z,4.92
2019-05-17T15:53:45.716Z,4.83
2019-05-17T15:56:16.132Z,5.00
2019-05-17T15:58:46.510Z,4.75
2019-05-17T16:01:16.963Z,5.50
2019-05-17T16:03:47.421Z,5.35
2019-05-17T16:06:17.945Z,4.97
2019-05-17T16:08:48.511Z,5.40
2019-05-17T16:11:18.914Z,5.37
2019-05-17T16:13:49.592Z,5.12
2019-05-17T16:16:21.674Z,4.72
2019-05-17T16:18:52.125Z,5.25
2019-05-17T16:21:24.324Z,4.95
2019-05-17T16:23:54.717Z,5.87
2019-05-17T16:26:25.253Z,4.75
2019-05-17T16:28:55.630Z,4.90
2019-05-17T16:31:26.029Z,5.87
2019-05-17T16:33:56.489Z,4.65
2019-05-17T16:36:27.144Z,4.70
2019-05-17T16:38:57.525Z,5.42
2019-05-17T16:41:29.503Z,4.90
2019-05-17T16:43:59.865Z,5.80
2019-05-17T16:46:30.301Z,5.45
2019-05-17T16:49:00.741Z,5.83
2019-05-17T16:51:31.214Z,5.58
2019-05-17T16:54:01.595Z,7.25
2019-05-17T16:56:33.576Z,5.58
2019-05-17T16:59:05.622Z,8.20
2019-05-17T17:01:36.026Z,6.45
2019-05-17T17:04:06.535Z,6.47
2019-05-17T17:06:37.229Z,6.53
2019-05-17T17:09:09.069Z,5.72
2019-05-17T17:11:39.584Z,5.67
2019-05-17T17:14:09.950Z,5.72
2019-05-17T17:16:41.881Z,5.53
2019-05-17T17:19:12.286Z,5.55
2019-05-17T17:21:42.699Z,5.87
2019-05-17T17:24:13.187Z,5.33
2019-05-17T17:26:43.633Z,5.22
2019-05-17T17:29:14.043Z,5.50
2019-05-17T17:31:44.407Z,5.65
2019-05-17T17:34:14.901Z,5.00
2019-05-17T17:36:45.317Z,5.65
2019-05-17T17:39:15.725Z,5.40
2019-05-17T17:41:46.134Z,4.92
2019-05-17T17:44:19.492Z,5.85
2019-05-17T17:46:49.946Z,12.03
2019-05-17T17:49:20.346Z,11.18
2019-05-17T17:51:52.343Z,9.43
2019-05-17T17:54:22.778Z,11.03
2019-05-17T17:56:54.763Z,9.93
2019-05-17T17:59:25.129Z,5.28
2019-05-17T18:01:55.528Z,5.45
2019-05-17T18:04:26.767Z,7.75
2019-05-17T18:06:57.214Z,6.97
2019-05-17T18:09:27.683Z,5.53
2019-05-17T18:11:58.097Z,4.62
2019-05-17T18:14:29.942Z,5.95
2019-05-17T18:17:00.382Z,5.03
2019-05-17T18:19:30.881Z,4.75
2019-05-17T18:22:02.221Z,4.62
2019-05-17T18:24:32.617Z,5.60
2019-05-17T18:27:03.098Z,5.40
2019-05-17T18:29:35.112Z,5.72
2019-05-17T18:32:07.069Z,5.67
2019-05-17T18:34:37.484Z,5.55
2019-05-17T18:37:09.345Z,5.45
2019-05-17T18:39:39.797Z,5.30
2019-05-17T18:42:10.255Z,5.35
2019-05-17T18:44:40.643Z,5.47
2019-05-17T18:47:11.059Z,6.00
2019-05-17T18:49:42.277Z,6.70
2019-05-17T18:52:12.849Z,6.20
2019-05-17T18:54:43.223Z,7.10
2019-05-17T18:57:13.630Z,5.60
2019-05-17T18:59:44.033Z,6.12
2019-05-17T19:02:14.423Z,6.15
2019-05-17T19:04:46.322Z,7.00
2019-05-17T19:07:16.692Z,6.10
2019-05-17T19:09:47.219Z,5.87
2019-05-17T19:12:17.672Z,5.12
2019-05-17T19:14:48.099Z,6.08
2019-05-17T19:17:18.480Z,6.70
2019-05-17T19:19:48.905Z,5.42
2019-05-17T19:22:19.283Z,6.58
2019-05-17T19:24:49.667Z,6.58
2019-05-17T19:27:20.894Z,5.95
2019-05-17T19:29:51.253Z,6.62
2019-05-17T19:32:21.675Z,6.37
2019-05-17T19:34:52.091Z,6.87
2019-05-17T19:37:22.507Z,5.83
2019-05-17T19:39:52.949Z,6.28
2019-05-17T19:42:23.504Z,6.60
2019-05-17T19:44:59.086Z,5.85
2019-05-17T19:47:26.044Z,6.05
2019-05-17T19:49:56.528Z,6.90
2019-05-17T19:52:27.088Z,7.35
2019-05-17T19:54:57.574Z,6.83
2019-05-17T19:57:31.099Z,7.08
2019-05-17T20:00:01.618Z,7.30
2019-05-17T20:02:32.126Z,6.85
2019-05-17T20:05:02.562Z,6.80
2019-05-17T20:07:37.911Z,6.87
2019-05-17T20:10:08.979Z,7.15
2019-05-17T20:12:39.495Z,7.40
2019-05-17T20:15:17.200Z,6.20
2019-05-17T20:17:43.189Z,7.28
2019-05-17T20:20:14.172Z,7.37
2019-05-17T20:22:44.582Z,7.15
2019-05-17T20:25:17.214Z,8.13
2019-05-17T20:27:47.610Z,7.22
2019-05-17T20:30:19.697Z,7.60
2019-05-17T20:32:50.086Z,8.33
2019-05-17T20:35:20.461Z,8.20
2019-05-17T20:37:50.867Z,7.58
2019-05-17T20:40:21.353Z,8.53
2019-05-17T20:42:51.747Z,7.67
2019-05-17T20:45:32.743Z,8.10
2019-05-17T20:47:55.758Z,7.60
2019-05-17T20:50:26.155Z,8.45
2019-05-17T20:52:56.600Z,8.45
2019-05-17T20:55:27.463Z,9.68
2019-05-17T20:57:57.951Z,9.55
2019-05-17T21:00:29.145Z,11.97
2019-05-17T21:02:59.565Z,13.08
2019-05-17T21:05:29.963Z,13.25
2019-05-17T21:08:00.365Z,13.48
2019-05-17T21:10:30.826Z,13.40
2019-05-17T21:13:02.181Z,14.78
2019-05-17T21:15:45.739Z,13.75
2019-05-17T21:18:04.722Z,14.63
2019-05-17T21:20:35.167Z,13.43
2019-05-17T21:23:05.597Z,14.58
2019-05-17T21:25:37.555Z,14.07
2019-05-17T21:28:07.977Z,15.20
2019-05-17T21:30:38.553Z,13.93
2019-05-17T21:33:09.138Z,15.32
2019-05-17T21:35:39.581Z,15.30
2019-05-17T21:38:09.997Z,14.25
2019-05-17T21:40:40.455Z,13.95
2019-05-17T21:43:10.948Z,14.28
2019-05-17T21:45:43.013Z,14.98
2019-05-17T21:48:14.897Z,15.35
2019-05-17T21:50:45.395Z,14.23
2019-05-17T21:53:17.491Z,14.70
2019-05-17T21:55:47.918Z,14.20
2019-05-17T21:58:20.434Z,15.15
2019-05-17T22:01:14.542Z,15.55
2019-05-17T22:03:45.092Z,15.53
2019-05-17T22:06:15.504Z,16.07
2019-05-17T22:08:46.898Z,16.90
2019-05-17T22:11:18.803Z,16.52
2019-05-17T22:13:49.288Z,16.40
2019-05-17T22:16:21.154Z,15.88
2019-05-17T22:18:51.579Z,16.52
2019-05-17T22:21:21.981Z,16.48
2019-05-17T22:23:53.831Z,16.52
2019-05-17T22:26:24.251Z,17.20
2019-05-17T22:28:54.639Z,17.70
2019-05-17T22:31:25.176Z,18.60
2019-05-17T22:33:55.671Z,17.50
2019-05-17T22:36:26.160Z,19.30
2019-05-17T22:38:58.115Z,18.77
2019-05-17T22:41:28.539Z,18.75
2019-05-17T22:43:58.913Z,18.40
2019-05-17T22:46:36.092Z,19.62
2019-05-17T22:49:01.418Z,19.77
2019-05-17T22:51:31.806Z,20.25
2019-05-17T22:54:02.317Z,19.32
2019-05-17T22:56:34.158Z,22.37
2019-05-17T22:59:04.599Z,20.60
2019-05-17T23:01:35.001Z,22.32
2019-05-17T23:04:05.385Z,22.22
2019-05-17T23:06:35.825Z,21.35
2019-05-17T23:09:06.732Z,22.30
2019-05-17T23:11:37.124Z,21.60
2019-05-17T23:14:07.577Z,22.58
2019-05-17T23:16:50.488Z,24.92
2019-05-17T23:19:13.829Z,22.32
2019-05-17T23:21:44.270Z,22.50
2019-05-17T23:24:16.162Z,23.22
2019-05-17T23:26:46.605Z,23.27
2019-05-17T23:29:17.020Z,21.87
2019-05-17T23:31:48.969Z,23.67
2019-05-17T23:34:19.387Z,22.87
2019-05-17T23:36:49.854Z,23.50
2019-05-17T23:39:20.337Z,22.55
2019-05-17T23:41:50.708Z,22.75
2019-05-17T23:44:21.180Z,21.35
2019-05-17T23:47:06.051Z,23.92
2019-05-17T23:49:23.989Z,21.37
2019-05-17T23:51:54.428Z,23.65
2019-05-17T23:54:26.270Z,22.65
2019-05-17T23:56:56.682Z,24.40
2019-05-17T23:59:27.069Z,24.37
